createdAt,value
2023-05-12T00:01:17.437Z,99.90
2023-05-12T00:03:44.618Z,99.90
2023-05-12T00:06:12.424Z,99.90
2023-05-12T00:08:39.348Z,99.90
2023-05-12T00:11:06.271Z,99.90
2023-05-12T00:13:33.407Z,99.90
2023-05-12T00:16:00.653Z,99.90
2023-05-12T00:18:28.795Z,99.90
2023-05-12T00:20:56.071Z,99.90
2023-05-12T00:23:23.313Z,99.90
2023-05-12T00:25:50.609Z,99.90
2023-05-12T00:28:18.868Z,99.90
2023-05-12T00:30:46.024Z,99.90
2023-05-12T00:33:13.305Z,99.90
2023-05-12T00:35:40.372Z,99.90
2023-05-12T00:38:07.249Z,99.90
2023-05-12T00:40:34.309Z,99.90
2023-05-12T00:43:01.510Z,99.90
2023-05-12T00:45:29.830Z,99.90
2023-05-12T00:47:57.315Z,99.90
2023-05-12T00:50:24.605Z,99.90
2023-05-12T00:52:52.725Z,99.90
2023-05-12T00:55:20.090Z,99.90
2023-05-12T00:57:47.121Z,99.90
2023-05-12T01:00:14.344Z,99.90
2023-05-12T01:02:41.408Z,99.90
2023-05-12T01:05:10.107Z,99.90
2023-05-12T01:07:39.064Z,99.90
2023-05-12T01:10:20.757Z,99.90
2023-05-12T01:12:48.439Z,99.90
2023-05-12T01:15:15.585Z,99.90
2023-05-12T01:17:53.212Z,99.90
2023-05-12T01:20:24.372Z,99.90
2023-05-12T01:22:52.598Z,99.90
2023-05-12T01:25:21.962Z,99.90
2023-05-12T01:27:49.464Z,99.90
2023-05-12T01:30:18.381Z,99.90
2023-05-12T01:32:45.687Z,99.90
2023-05-12T01:35:12.669Z,99.90
2023-05-12T01:37:39.560Z,99.90
2023-05-12T01:40:06.946Z,99.90
2023-05-12T01:42:33.846Z,99.90
2023-05-12T01:45:00.807Z,99.90
2023-05-12T01:47:27.662Z,99.90
2023-05-12T01:49:54.617Z,99.90
2023-05-12T01:52:21.589Z,99.90
2023-05-12T01:54:48.521Z,99.90
2023-05-12T01:57:15.417Z,99.90
2023-05-12T01:59:42.257Z,99.90
2023-05-12T02:02:09.539Z,99.90
2023-05-12T02:04:36.493Z,99.90
2023-05-12T02:07:03.816Z,99.90
2023-05-12T02:09:31.114Z,99.90
2023-05-12T02:11:58.132Z,99.90
2023-05-12T02:14:25.061Z,99.90
2023-05-12T02:16:53.015Z,99.90
2023-05-12T02:19:21.027Z,99.90
2023-05-12T02:21:48.773Z,99.90
2023-05-12T02:24:16.710Z,99.90
2023-05-12T02:26:43.819Z,99.90
2023-05-12T02:29:11.978Z,99.90
2023-05-12T02:31:39.159Z,99.90
2023-05-12T02:34:06.824Z,99.90
2023-05-12T02:36:34.013Z,99.90
2023-05-12T02:39:00.888Z,99.90
2023-05-12T02:41:27.792Z,99.90
2023-05-12T02:43:54.982Z,99.90
2023-05-12T02:46:21.996Z,99.90
2023-05-12T02:48:48.908Z,99.90
2023-05-12T02:51:15.880Z,99.90
2023-05-12T02:53:42.826Z,99.90
2023-05-12T02:56:09.684Z,99.90
2023-05-12T02:58:36.652Z,99.90
2023-05-12T03:01:10.844Z,99.90
2023-05-12T03:03:38.978Z,99.90
2023-05-12T03:06:06.637Z,99.90
2023-05-12T03:08:33.663Z,99.90
2023-05-12T03:11:01.876Z,99.90
2023-05-12T03:13:28.780Z,99.90
2023-05-12T03:15:55.947Z,99.90
2023-05-12T03:18:22.994Z,99.90
2023-05-12T03:20:50.006Z,99.90
2023-05-12T03:23:16.986Z,99.90
2023-05-12T03:25:43.915Z,99.90
2023-05-12T03:28:11.489Z,99.90
2023-05-12T03:30:38.372Z,99.90
2023-05-12T03:33:05.314Z,99.90
2023-05-12T03:35:32.232Z,99.90
2023-05-12T03:37:59.105Z,99.90
2023-05-12T03:40:25.983Z,99.90
2023-05-12T03:42:52.856Z,99.90
2023-05-12T03:45:19.768Z,99.90
2023-05-12T03:47:46.913Z,99.90
2023-05-12T03:50:13.859Z,99.90
2023-05-12T03:52:41.583Z,99.90
2023-05-12T03:55:09.345Z,99.90
2023-05-12T03:57:37.774Z,99.90
2023-05-12T04:00:05.742Z,99.90
2023-05-12T04:02:32.954Z,99.90
2023-05-12T04:04:59.935Z,99.90
2023-05-12T04:07:27.270Z,99.90
2023-05-12T04:09:54.176Z,99.90
2023-05-12T04:12:21.067Z,99.90
2023-05-12T04:14:48.316Z,99.90
2023-05-12T04:17:15.391Z,99.90
2023-05-12T04:19:42.250Z,99.90
2023-05-12T04:22:09.172Z,99.90
2023-05-12T04:24:38.293Z,99.90
2023-05-12T04:27:06.189Z,99.90
2023-05-12T04:29:33.501Z,99.90
2023-05-12T04:32:00.481Z,99.90
2023-05-12T04:34:27.527Z,99.90
2023-05-12T04:36:54.380Z,99.90
2023-05-12T04:39:21.457Z,99.90
2023-05-12T04:41:48.329Z,99.90
2023-05-12T04:44:15.661Z,99.90
2023-05-12T04:46:43.387Z,99.90
2023-05-12T04:49:10.985Z,99.90
2023-05-12T04:51:42.357Z,99.90
2023-05-12T04:54:12.205Z,99.90
2023-05-12T04:56:39.289Z,99.90
2023-05-12T04:59:06.644Z,99.90
2023-05-12T05:01:33.595Z,99.90
2023-05-12T05:04:00.706Z,99.90
2023-05-12T05:06:28.371Z,99.90
2023-05-12T05:08:55.973Z,99.90
2023-05-12T05:11:23.329Z,99.90
2023-05-12T05:13:50.354Z,99.90
2023-05-12T05:16:17.395Z,99.90
2023-05-12T05:18:46.482Z,99.90
2023-05-12T05:21:16.357Z,99.90
2023-05-12T05:23:43.323Z,99.90
2023-05-12T05:26:10.358Z,99.90
2023-05-12T05:28:39.807Z,99.90
2023-05-12T05:31:07.167Z,99.90
2023-05-12T05:33:34.156Z,99.90
2023-05-12T05:36:01.171Z,99.90
2023-05-12T05:38:28.091Z,99.90
2023-05-12T05:40:54.966Z,99.90
2023-05-12T05:43:21.972Z,99.90
2023-05-12T05:45:49.995Z,99.90
2023-05-12T05:48:17.308Z,99.90
2023-05-12T05:50:44.492Z,99.90
2023-05-12T05:53:11.405Z,99.90
2023-05-12T05:55:38.478Z,99.90
2023-05-12T05:58:05.606Z,99.90
2023-05-12T06:00:32.557Z,99.90
2023-05-12T06:02:59.474Z,99.90
2023-05-12T06:05:26.745Z,99.90
2023-05-12T06:07:53.759Z,99.90
2023-05-12T06:10:20.901Z,99.90
2023-05-12T06:12:48.069Z,99.90
2023-05-12T06:15:14.937Z,99.90
2023-05-12T06:17:41.916Z,99.90
2023-05-12T06:20:09.284Z,99.90
2023-05-12T06:22:36.197Z,99.90
2023-05-12T06:25:03.910Z,99.90
2023-05-12T06:27:30.892Z,99.90
2023-05-12T06:29:57.810Z,99.90
2023-05-12T06:32:24.716Z,99.90
2023-05-12T06:34:51.662Z,99.90
2023-05-12T06:37:18.589Z,99.90
2023-05-12T06:39:45.458Z,99.90
2023-05-12T06:42:12.364Z,99.90
2023-05-12T06:44:41.723Z,99.90
2023-05-12T06:47:09.317Z,99.90
2023-05-12T06:49:38.074Z,99.90
2023-05-12T06:52:06.524Z,99.90
2023-05-12T06:54:33.530Z,99.90
2023-05-12T06:57:00.438Z,99.90
2023-05-12T06:59:27.690Z,99.90
2023-05-12T07:01:54.660Z,99.90
2023-05-12T07:04:22.672Z,99.90
2023-05-12T07:06:49.741Z,99.90
2023-05-12T07:09:18.859Z,99.90
2023-05-12T07:11:45.972Z,99.90
2023-05-12T07:14:12.885Z,99.90
2023-05-12T07:16:39.894Z,99.90
2023-05-12T07:19:09.054Z,99.90
2023-05-12T07:21:37.230Z,99.90
2023-05-12T07:24:06.167Z,99.90
2023-05-12T07:26:33.369Z,99.90
2023-05-12T07:29:01.067Z,99.90
2023-05-12T07:31:28.846Z,99.90
2023-05-12T07:33:56.043Z,99.90
2023-05-12T07:36:23.253Z,99.80
2023-05-12T07:38:50.237Z,99.30
2023-05-12T07:41:18.069Z,98.80
2023-05-12T07:43:45.678Z,99.10
2023-05-12T07:46:12.613Z,99.20
2023-05-12T07:48:40.426Z,99.70
2023-05-12T07:51:07.918Z,98.60
2023-05-12T07:53:35.237Z,99.40
2023-05-12T07:56:02.761Z,97.80
2023-05-12T07:58:29.933Z,97.70
2023-05-12T08:00:59.139Z,97.70
2023-05-12T08:03:26.461Z,97.50
2023-05-12T08:05:53.461Z,98.10
2023-05-12T08:08:20.316Z,97.40
2023-05-12T08:10:47.179Z,97.70
2023-05-12T08:13:14.033Z,98.00
2023-05-12T08:15:40.958Z,97.80
2023-05-12T08:18:07.867Z,97.90
2023-05-12T08:20:35.827Z,97.90
2023-05-12T08:23:02.750Z,97.90
2023-05-12T08:25:30.664Z,98.00
2023-05-12T08:28:00.665Z,97.80
2023-05-12T08:30:28.227Z,97.60
2023-05-12T08:32:56.780Z,97.70
2023-05-12T08:35:27.153Z,97.40
2023-05-12T08:37:54.331Z,97.30
2023-05-12T08:40:22.606Z,96.60
2023-05-12T08:43:30.133Z,96.50
2023-05-12T08:46:00.319Z,96.10
2023-05-12T08:48:29.351Z,95.70
2023-05-12T08:50:58.023Z,95.10
2023-05-12T08:53:27.661Z,95.40
2023-05-12T08:57:09.301Z,95.90
2023-05-12T08:58:45.590Z,95.60
2023-05-12T09:01:14.809Z,95.10
2023-05-12T09:03:42.094Z,94.40
2023-05-12T09:06:11.537Z,94.70
2023-05-12T09:08:39.273Z,94.30
2023-05-12T09:11:06.808Z,94.70
2023-05-12T09:13:49.687Z,93.30
2023-05-12T09:16:22.290Z,93.50
2023-05-12T09:18:59.721Z,93.40
2023-05-12T09:21:27.165Z,93.10
2023-05-12T09:24:07.709Z,92.70
2023-05-12T09:26:56.108Z,92.50
2023-05-12T09:29:30.690Z,92.30
2023-05-12T09:32:01.849Z,93.00
2023-05-12T09:34:35.653Z,92.20
2023-05-12T09:37:05.266Z,92.10
2023-05-12T09:39:32.904Z,92.30
2023-05-12T09:42:00.314Z,91.60
2023-05-12T09:44:29.518Z,92.00
2023-05-12T09:46:56.537Z,91.00
2023-05-12T09:49:27.036Z,90.50
2023-05-12T09:51:56.452Z,90.20
2023-05-12T09:54:28.599Z,90.70
2023-05-12T09:56:59.673Z,90.80
2023-05-12T09:59:32.751Z,91.00
2023-05-12T10:02:01.703Z,90.60
2023-05-12T10:05:01.126Z,90.60
2023-05-12T10:07:29.503Z,90.30
2023-05-12T10:09:59.817Z,90.00
2023-05-12T10:12:26.996Z,90.40
2023-05-12T10:14:55.358Z,89.30
2023-05-12T10:17:24.715Z,89.90
2023-05-12T10:19:52.729Z,90.20
2023-05-12T10:22:20.212Z,90.10
2023-05-12T10:24:48.976Z,90.40
2023-05-12T10:27:17.264Z,90.20
2023-05-12T10:29:45.355Z,91.70
2023-05-12T10:32:12.308Z,92.70
2023-05-12T10:34:42.083Z,92.20
2023-05-12T10:37:11.488Z,92.90
2023-05-12T10:39:47.787Z,93.70
2023-05-12T10:42:17.954Z,93.50
2023-05-12T10:44:52.197Z,92.30
2023-05-12T10:47:19.601Z,91.70
2023-05-12T10:49:46.562Z,91.80
2023-05-12T10:52:19.766Z,91.20
2023-05-12T10:54:47.743Z,91.00
2023-05-12T10:57:21.383Z,90.80
2023-05-12T10:59:57.725Z,90.30
2023-05-12T11:02:30.824Z,90.20
2023-05-12T11:05:01.378Z,90.30
2023-05-12T11:07:35.285Z,90.20
2023-05-12T11:10:05.454Z,89.70
2023-05-12T11:12:35.563Z,90.50
2023-05-12T11:15:03.998Z,92.40
2023-05-12T11:17:31.123Z,92.50
2023-05-12T11:19:58.602Z,92.10
2023-05-12T11:22:25.982Z,91.00
2023-05-12T11:24:53.397Z,91.60
2023-05-12T11:27:22.874Z,92.30
2023-05-12T11:29:58.912Z,91.60
2023-05-12T11:32:26.291Z,90.70
2023-05-12T11:34:53.454Z,89.30
2023-05-12T11:37:21.348Z,90.30
2023-05-12T11:39:48.781Z,89.40
2023-05-12T11:42:17.754Z,89.50
2023-05-12T11:44:48.381Z,89.90
2023-05-12T11:47:16.854Z,90.30
2023-05-12T11:49:51.062Z,90.90
2023-05-12T11:52:19.834Z,91.20
2023-05-12T11:55:00.988Z,91.80
2023-05-12T11:57:32.980Z,91.00
2023-05-12T12:00:02.306Z,87.00
2023-05-12T12:02:29.759Z,86.80
2023-05-12T12:04:57.013Z,86.30
2023-05-12T12:07:37.440Z,86.60
2023-05-12T12:10:24.949Z,87.10
2023-05-12T12:12:51.766Z,86.80
2023-05-12T12:15:18.856Z,86.70
2023-05-12T12:17:45.974Z,85.10
2023-05-12T12:20:12.918Z,86.10
2023-05-12T12:22:39.831Z,85.70
2023-05-12T12:25:07.406Z,84.90
2023-05-12T12:27:34.343Z,84.70
2023-05-12T12:30:01.482Z,85.30
2023-05-12T12:32:29.256Z,85.50
2023-05-12T12:34:59.778Z,84.20
2023-05-12T12:37:26.621Z,85.20
2023-05-12T12:39:53.609Z,84.00
2023-05-12T12:42:20.517Z,83.50
2023-05-12T12:44:50.229Z,83.00
2023-05-12T12:47:17.895Z,83.70
2023-05-12T12:49:45.080Z,83.90
2023-05-12T12:52:12.664Z,84.20
2023-05-12T12:54:39.532Z,84.00
2023-05-12T12:57:06.645Z,83.70
2023-05-12T12:59:33.804Z,83.50
2023-05-12T13:02:01.430Z,85.40
2023-05-12T13:04:28.378Z,83.30
2023-05-12T13:06:55.264Z,82.50
2023-05-12T13:09:22.965Z,83.50
2023-05-12T13:11:50.375Z,83.70
2023-05-12T13:14:17.287Z,84.10
2023-05-12T13:16:44.149Z,82.70
2023-05-12T13:19:11.224Z,83.10
2023-05-12T13:21:38.207Z,83.10
2023-05-12T13:24:05.209Z,82.80
2023-05-12T13:26:32.045Z,82.60
2023-05-12T13:28:58.975Z,83.00
2023-05-12T13:31:26.129Z,82.80
2023-05-12T13:33:53.137Z,83.80
2023-05-12T13:36:20.015Z,84.00
2023-05-12T13:38:46.896Z,83.00
2023-05-12T13:41:13.826Z,83.00
2023-05-12T13:43:40.729Z,82.60
2023-05-12T13:46:08.377Z,83.70
2023-05-12T13:48:35.778Z,82.90
2023-05-12T13:51:02.727Z,82.00
2023-05-12T13:53:29.588Z,82.00
2023-05-12T13:55:56.419Z,83.00
2023-05-12T13:58:23.509Z,81.80
2023-05-12T14:00:50.507Z,83.10
2023-05-12T14:03:18.154Z,82.40
2023-05-12T14:05:44.996Z,82.70
2023-05-12T14:08:11.845Z,83.00
2023-05-12T14:10:38.865Z,82.60
2023-05-12T14:13:07.321Z,81.10
2023-05-12T14:15:48.144Z,81.70
2023-05-12T14:18:16.521Z,82.30
2023-05-12T14:20:44.249Z,82.60
2023-05-12T14:23:11.234Z,80.80
2023-05-12T14:25:38.188Z,80.70
2023-05-12T14:28:05.131Z,80.80
2023-05-12T14:30:35.000Z,82.00
2023-05-12T14:33:02.795Z,82.40
2023-05-12T14:35:30.312Z,82.70
2023-05-12T14:37:57.886Z,83.20
2023-05-12T14:40:25.102Z,82.90
2023-05-12T14:42:52.565Z,83.50
2023-05-12T14:45:19.863Z,82.70
2023-05-12T14:47:47.438Z,83.20
2023-05-12T14:50:15.111Z,81.50
2023-05-12T14:52:42.392Z,81.80
2023-05-12T14:55:13.882Z,82.10
2023-05-12T14:57:44.830Z,82.10
2023-05-12T15:00:13.826Z,81.50
2023-05-12T15:02:41.877Z,81.80
2023-05-12T15:05:10.171Z,82.70
2023-05-12T15:07:37.805Z,82.90
2023-05-12T15:10:06.027Z,83.10
2023-05-12T15:12:57.546Z,82.70
2023-05-12T15:15:24.485Z,83.30
2023-05-12T15:17:51.754Z,83.40
2023-05-12T15:20:18.735Z,84.30
2023-05-12T15:22:47.523Z,85.30
2023-05-12T15:25:14.364Z,84.60
2023-05-12T15:27:41.951Z,85.40
2023-05-12T15:30:09.650Z,84.50
2023-05-12T15:32:38.579Z,83.50
2023-05-12T15:35:06.025Z,82.50
2023-05-12T15:37:33.075Z,82.50
2023-05-12T15:40:00.050Z,83.40
2023-05-12T15:42:32.972Z,81.40
2023-05-12T15:45:00.421Z,81.50
2023-05-12T15:47:27.954Z,80.20
2023-05-12T15:49:55.262Z,81.50
2023-05-12T15:52:22.308Z,81.20
2023-05-12T15:54:49.406Z,81.60
2023-05-12T15:57:16.620Z,81.90
2023-05-12T15:59:43.758Z,82.10
2023-05-12T16:02:11.010Z,81.60
2023-05-12T16:04:38.258Z,82.10
2023-05-12T16:07:05.652Z,82.70
2023-05-12T16:09:33.186Z,82.90
2023-05-12T16:12:00.350Z,83.10
2023-05-12T16:14:27.706Z,84.30
2023-05-12T16:16:54.658Z,84.90
2023-05-12T16:19:21.824Z,84.30
2023-05-12T16:21:48.808Z,85.10
2023-05-12T16:24:16.070Z,85.20
2023-05-12T16:26:43.287Z,85.40
2023-05-12T16:29:10.696Z,84.50
2023-05-12T16:31:37.891Z,85.00
2023-05-12T16:34:04.982Z,85.30
2023-05-12T16:36:32.274Z,86.20
2023-05-12T16:38:59.731Z,86.20
2023-05-12T16:41:28.565Z,86.30
2023-05-12T16:43:55.686Z,87.50
2023-05-12T16:46:22.629Z,87.40
2023-05-12T16:48:49.597Z,88.50
2023-05-12T16:51:16.518Z,88.80
2023-05-12T16:53:43.451Z,89.50
2023-05-12T16:56:10.429Z,90.00
2023-05-12T16:58:37.402Z,89.60
2023-05-12T17:01:05.516Z,88.80
2023-05-12T17:03:32.574Z,90.10
2023-05-12T17:05:59.496Z,90.20
2023-05-12T17:08:26.457Z,90.40
2023-05-12T17:10:53.337Z,90.40
2023-05-12T17:13:21.360Z,90.80
2023-05-12T17:15:48.308Z,90.70
2023-05-12T17:18:15.223Z,90.70
2023-05-12T17:20:42.083Z,90.70
2023-05-12T17:23:09.335Z,90.30
2023-05-12T17:25:36.718Z,90.60
2023-05-12T17:28:04.556Z,91.20
2023-05-12T17:30:32.009Z,91.10
2023-05-12T17:32:58.998Z,91.40
2023-05-12T17:35:25.929Z,91.20
2023-05-12T17:37:55.438Z,91.50
2023-05-12T17:40:23.082Z,91.40
2023-05-12T17:42:50.414Z,91.70
2023-05-12T17:45:17.741Z,91.80
2023-05-12T17:47:45.724Z,91.00
2023-05-12T17:50:14.906Z,91.20
2023-05-12T17:52:43.178Z,91.30
2023-05-12T17:55:10.282Z,90.90
2023-05-12T17:57:38.091Z,91.10
2023-05-12T18:00:09.994Z,91.10
2023-05-12T18:02:41.253Z,91.50
2023-05-12T18:05:09.199Z,91.30
2023-05-12T18:07:36.346Z,91.50
2023-05-12T18:10:03.549Z,92.20
2023-05-12T18:12:30.958Z,92.70
2023-05-12T18:14:57.854Z,92.70
2023-05-12T18:17:24.788Z,93.00
2023-05-12T18:19:51.812Z,93.00
2023-05-12T18:22:18.967Z,93.40
2023-05-12T18:24:46.000Z,93.70
2023-05-12T18:27:12.965Z,93.90
2023-05-12T18:29:39.961Z,94.30
2023-05-12T18:32:07.028Z,94.30
2023-05-12T18:34:34.129Z,94.50
2023-05-12T18:37:01.084Z,94.70
2023-05-12T18:39:28.046Z,94.70
2023-05-12T18:41:55.042Z,95.10
2023-05-12T18:44:22.211Z,95.50
2023-05-12T18:46:49.085Z,95.70
2023-05-12T18:49:15.954Z,95.80
2023-05-12T18:51:42.804Z,96.20
2023-05-12T18:54:09.706Z,96.50
2023-05-12T18:56:36.984Z,96.90
2023-05-12T18:59:03.916Z,97.30
2023-05-12T19:01:31.612Z,97.60
2023-05-12T19:03:58.506Z,98.00
2023-05-12T19:06:25.520Z,98.20
2023-05-12T19:08:52.363Z,98.50
2023-05-12T19:11:19.215Z,98.90
2023-05-12T19:13:47.302Z,99.30
2023-05-12T19:16:14.162Z,99.50
2023-05-12T19:18:41.119Z,99.90
2023-05-12T19:21:08.326Z,99.90
2023-05-12T19:23:35.340Z,99.90
2023-05-12T19:26:02.343Z,99.90
2023-05-12T19:28:29.277Z,99.90
2023-05-12T19:30:56.266Z,99.90
2023-05-12T19:33:23.248Z,99.90
2023-05-12T19:35:50.310Z,99.90
2023-05-12T19:38:18.616Z,99.90
2023-05-12T19:40:45.609Z,99.90
2023-05-12T19:43:12.727Z,99.90
2023-05-12T19:45:40.193Z,99.90
2023-05-12T19:48:07.805Z,99.90
2023-05-12T19:50:34.752Z,99.90
2023-05-12T19:53:01.757Z,99.90
2023-05-12T19:55:29.162Z,99.90
2023-05-12T19:57:56.554Z,99.90
2023-05-12T20:00:25.770Z,99.90
2023-05-12T20:02:52.761Z,99.90
2023-05-12T20:05:20.244Z,99.90
2023-05-12T20:07:48.549Z,99.90
2023-05-12T20:10:15.450Z,99.90
2023-05-12T20:12:42.381Z,99.90
2023-05-12T20:15:09.527Z,99.90
2023-05-12T20:17:36.608Z,99.90
2023-05-12T20:20:04.360Z,99.90
2023-05-12T20:22:31.868Z,99.90
2023-05-12T20:25:04.226Z,99.90
2023-05-12T20:27:32.208Z,99.90
2023-05-12T20:29:59.354Z,99.90
2023-05-12T20:32:26.308Z,99.90
2023-05-12T20:34:53.174Z,99.90
2023-05-12T20:37:20.196Z,99.90
2023-05-12T20:39:47.071Z,99.90
2023-05-12T20:42:14.054Z,99.90
2023-05-12T20:44:40.995Z,99.90
2023-05-12T20:47:08.966Z,99.90
2023-05-12T20:49:35.908Z,99.90
2023-05-12T20:52:02.927Z,99.90
2023-05-12T20:54:29.821Z,99.90
2023-05-12T20:56:56.825Z,99.90
2023-05-12T20:59:24.767Z,99.90
2023-05-12T21:01:51.744Z,99.90
2023-05-12T21:04:18.922Z,99.90
2023-05-12T21:06:46.005Z,99.90
2023-05-12T21:09:12.852Z,99.90
2023-05-12T21:11:39.801Z,99.90
2023-05-12T21:14:06.631Z,99.90
2023-05-12T21:16:33.540Z,99.90
2023-05-12T21:19:00.523Z,99.90
2023-05-12T21:21:28.678Z,99.90
2023-05-12T21:23:55.697Z,99.90
2023-05-12T21:26:22.561Z,99.90
2023-05-12T21:28:49.426Z,99.90
2023-05-12T21:31:16.442Z,99.90
2023-05-12T21:33:43.348Z,99.90
2023-05-12T21:36:10.284Z,99.90
2023-05-12T21:38:37.129Z,99.90
2023-05-12T21:41:04.399Z,99.90
2023-05-12T21:43:31.299Z,99.90
2023-05-12T21:46:05.359Z,99.90
2023-05-12T21:48:33.440Z,99.90
2023-05-12T21:51:01.339Z,99.90
2023-05-12T21:53:28.933Z,99.90
2023-05-12T21:55:56.306Z,99.90
2023-05-12T21:58:23.800Z,99.90
2023-05-12T22:00:54.070Z,99.90
2023-05-12T22:03:21.928Z,99.90
2023-05-12T22:05:48.954Z,99.90
2023-05-12T22:08:16.354Z,99.90
2023-05-12T22:10:43.529Z,99.90
2023-05-12T22:13:10.626Z,99.90
2023-05-12T22:15:37.549Z,99.90
2023-05-12T22:18:04.541Z,99.90
2023-05-12T22:20:31.544Z,99.90
2023-05-12T22:22:58.623Z,99.90
2023-05-12T22:25:25.615Z,99.90
2023-05-12T22:27:52.486Z,99.90
2023-05-12T22:30:20.567Z,99.90
2023-05-12T22:32:47.625Z,99.90
2023-05-12T22:35:14.647Z,99.90
2023-05-12T22:37:41.552Z,99.90
2023-05-12T22:40:09.129Z,99.90
2023-05-12T22:42:36.041Z,99.90
2023-05-12T22:45:04.815Z,99.90
2023-05-12T22:47:32.463Z,99.90
2023-05-12T22:50:00.117Z,99.90
2023-05-12T22:52:27.409Z,99.90
2023-05-12T22:54:55.061Z,99.90
2023-05-12T22:57:22.319Z,99.90
2023-05-12T22:59:49.400Z,99.90
2023-05-12T23:02:16.511Z,99.90
2023-05-12T23:04:44.029Z,99.90
2023-05-12T23:07:11.004Z,99.90
2023-05-12T23:09:37.984Z,99.90
2023-05-12T23:12:05.632Z,99.90
2023-05-12T23:14:32.517Z,99.90
2023-05-12T23:16:59.501Z,99.90
2023-05-12T23:19:26.445Z,99.90
2023-05-12T23:21:53.308Z,99.90
2023-05-12T23:24:20.405Z,99.90
2023-05-12T23:26:47.244Z,99.90
2023-05-12T23:29:14.132Z,99.90
2023-05-12T23:31:41.057Z,99.90
2023-05-12T23:34:07.965Z,99.90
2023-05-12T23:36:34.814Z,99.90
2023-05-12T23:39:01.646Z,99.90
2023-05-12T23:41:31.711Z,99.90
2023-05-12T23:43:58.856Z,99.90
2023-05-12T23:46:26.611Z,99.90
2023-05-12T23:48:56.209Z,99.90
2023-05-12T23:51:24.104Z,99.90
2023-05-12T23:53:51.011Z,99.90
2023-05-12T23:56:17.838Z,99.90
2023-05-12T23:58:44.692Z,99.90
